sensor_id;sensor_type;location;lat;lon;timestamp;temperature;humidity
18126;DHT22;53956;52.442;13.284;2023-08-31T00:00:34;19.30;99.90
18126;DHT22;53956;52.442;13.284;2023-08-31T00:03:01;19.30;99.90
18126;DHT22;53956;52.442;13.284;2023-08-31T00:05:28;19.20;99.90
18126;DHT22;53956;52.442;13.284;2023-08-31T00:07:57;19.30;99.90
18126;DHT22;53956;52.442;13.284;2023-08-31T00:16:07;19.30;99.90
18126;DHT22;53956;52.442;13.284;2023-08-31T00:18:35;19.20;99.90
18126;DHT22;53956;52.442;13.284;2023-08-31T00:23:56;19.30;99.90
18126;DHT22;53956;52.442;13.284;2023-08-31T00:26:23;19.40;99.90
18126;DHT22;53956;52.442;13.284;2023-08-31T00:28:52;19.20;99.90
18126;DHT22;53956;52.442;13.284;2023-08-31T00:31:28;19.20;99.90
18126;DHT22;53956;52.442;13.284;2023-08-31T00:36:40;19.30;99.90
18126;DHT22;53956;52.442;13.284;2023-08-31T00:39:07;19.30;99.90
18126;DHT22;53956;52.442;13.284;2023-08-31T00:41:37;19.20;99.90
18126;DHT22;53956;52.442;13.284;2023-08-31T00:44:08;19.30;99.90
18126;DHT22;53956;52.442;13.284;2023-08-31T00:46:36;19.20;99.90
18126;DHT22;53956;52.442;13.284;2023-08-31T00:49:02;19.20;99.90
18126;DHT22;53956;52.442;13.284;2023-08-31T00:51:30;19.20;99.90
18126;DHT22;53956;52.442;13.284;2023-08-31T00:53:57;19.20;99.90
18126;DHT22;53956;52.442;13.284;2023-08-31T00:56:26;19.30;99.90
18126;DHT22;53956;52.442;13.284;2023-08-31T01:01:41;19.20;99.90
18126;DHT22;53956;52.442;13.284;2023-08-31T01:04:17;19.20;99.90
18126;DHT22;53956;52.442;13.284;2023-08-31T01:09:31;19.20;99.90
18126;DHT22;53956;52.442;13.284;2023-08-31T01:12:03;19.30;99.90
18126;DHT22;53956;52.442;13.284;2023-08-31T01:14:33;19.20;99.90
18126;DHT22;53956;52.442;13.284;2023-08-31T01:17:04;19.20;99.90
18126;DHT22;53956;52.442;13.284;2023-08-31T01:24:49;19.30;99.90
18126;DHT22;53956;52.442;13.284;2023-08-31T01:27:34;19.20;99.90
18126;DHT22;53956;52.442;13.284;2023-08-31T01:32:32;19.10;99.90
18126;DHT22;53956;52.442;13.284;2023-08-31T01:34:59;19.20;99.90
18126;DHT22;53956;52.442;13.284;2023-08-31T01:37:33;19.20;99.90
18126;DHT22;53956;52.442;13.284;2023-08-31T01:40:08;19.20;99.90
18126;DHT22;53956;52.442;13.284;2023-08-31T01:42:40;19.20;99.90
18126;DHT22;53956;52.442;13.284;2023-08-31T01:45:11;19.20;99.90
18126;DHT22;53956;52.442;13.284;2023-08-31T01:47:39;19.20;99.90
18126;DHT22;53956;52.442;13.284;2023-08-31T01:52:44;19.00;99.90
18126;DHT22;53956;52.442;13.284;2023-08-31T01:55:12;19.10;99.90
18126;DHT22;53956;52.442;13.284;2023-08-31T02:03:19;19.00;99.90
18126;DHT22;53956;52.442;13.284;2023-08-31T02:05:49;19.00;99.90
18126;DHT22;53956;52.442;13.284;2023-08-31T02:08:25;18.90;99.90
18126;DHT22;53956;52.442;13.284;2023-08-31T02:10:55;19.00;99.90
18126;DHT22;53956;52.442;13.284;2023-08-31T02:15:52;18.90;99.90
18126;DHT22;53956;52.442;13.284;2023-08-31T02:18:19;18.90;99.90
18126;DHT22;53956;52.442;13.284;2023-08-31T02:20:56;18.80;99.90
18126;DHT22;53956;52.442;13.284;2023-08-31T02:23:23;18.80;99.90
18126;DHT22;53956;52.442;13.284;2023-08-31T02:25:56;18.90;99.90
18126;DHT22;53956;52.442;13.284;2023-08-31T02:31:04;18.90;99.90
18126;DHT22;53956;52.442;13.284;2023-08-31T02:33:31;18.90;99.90
18126;DHT22;53956;52.442;13.284;2023-08-31T02:36:01;18.90;99.90
18126;DHT22;53956;52.442;13.284;2023-08-31T02:38:28;18.90;99.90
18126;DHT22;53956;52.442;13.284;2023-08-31T02:40:56;18.80;99.90
18126;DHT22;53956;52.442;13.284;2023-08-31T02:43:23;18.80;99.90
18126;DHT22;53956;52.442;13.284;2023-08-31T02:45:51;18.90;99.90
18126;DHT22;53956;52.442;13.284;2023-08-31T02:48:24;18.90;99.90
18126;DHT22;53956;52.442;13.284;2023-08-31T02:50:56;18.80;99.90
18126;DHT22;53956;52.442;13.284;2023-08-31T02:53:24;18.80;99.90
18126;DHT22;53956;52.442;13.284;2023-08-31T03:12:00;18.70;99.90
18126;DHT22;53956;52.442;13.284;2023-08-31T03:19:37;18.60;99.90
18126;DHT22;53956;52.442;13.284;2023-08-31T03:22:04;18.60;99.90
18126;DHT22;53956;52.442;13.284;2023-08-31T03:24:31;18.70;99.90
18126;DHT22;53956;52.442;13.284;2023-08-31T03:27:02;18.70;99.90
18126;DHT22;53956;52.442;13.284;2023-08-31T03:29:28;18.60;99.90
18126;DHT22;53956;52.442;13.284;2023-08-31T03:31:57;18.60;99.90
18126;DHT22;53956;52.442;13.284;2023-08-31T03:34:24;18.80;99.90
18126;DHT22;53956;52.442;13.284;2023-08-31T03:36:54;18.60;99.90
18126;DHT22;53956;52.442;13.284;2023-08-31T03:39:31;18.60;99.90
18126;DHT22;53956;52.442;13.284;2023-08-31T03:42:01;18.70;99.90
18126;DHT22;53956;52.442;13.284;2023-08-31T03:47:19;18.60;99.90
18126;DHT22;53956;52.442;13.284;2023-08-31T03:49:47;18.70;99.90
18126;DHT22;53956;52.442;13.284;2023-08-31T03:52:24;18.60;99.90
18126;DHT22;53956;52.442;13.284;2023-08-31T03:54:57;18.70;99.90
18126;DHT22;53956;52.442;13.284;2023-08-31T03:57:25;18.60;99.90
18126;DHT22;53956;52.442;13.284;2023-08-31T03:59:55;18.50;99.90
18126;DHT22;53956;52.442;13.284;2023-08-31T04:02:21;18.50;99.90
18126;DHT22;53956;52.442;13.284;2023-08-31T04:04:49;18.50;99.90
18126;DHT22;53956;52.442;13.284;2023-08-31T04:07:24;18.40;99.90
18126;DHT22;53956;52.442;13.284;2023-08-31T04:09:57;18.50;99.90
18126;DHT22;53956;52.442;13.284;2023-08-31T04:17:44;18.40;99.90
18126;DHT22;53956;52.442;13.284;2023-08-31T04:20:15;18.40;99.90
18126;DHT22;53956;52.442;13.284;2023-08-31T04:22:42;18.40;99.90
18126;DHT22;53956;52.442;13.284;2023-08-31T04:25:09;18.30;99.90
18126;DHT22;53956;52.442;13.284;2023-08-31T04:27:36;18.40;99.90
18126;DHT22;53956;52.442;13.284;2023-08-31T04:30:08;18.40;99.90
18126;DHT22;53956;52.442;13.284;2023-08-31T04:32:35;18.40;99.90
18126;DHT22;53956;52.442;13.284;2023-08-31T04:35:04;18.40;99.90
18126;DHT22;53956;52.442;13.284;2023-08-31T04:42:39;18.40;99.90
18126;DHT22;53956;52.442;13.284;2023-08-31T04:45:07;18.40;99.90
18126;DHT22;53956;52.442;13.284;2023-08-31T04:50:10;18.30;99.90
18126;DHT22;53956;52.442;13.284;2023-08-31T04:52:37;18.30;99.90
18126;DHT22;53956;52.442;13.284;2023-08-31T04:55:06;18.30;99.90
18126;DHT22;53956;52.442;13.284;2023-08-31T04:57:33;18.30;99.90
18126;DHT22;53956;52.442;13.284;2023-08-31T05:00:00;18.40;99.90
18126;DHT22;53956;52.442;13.284;2023-08-31T05:02:28;18.40;99.90
18126;DHT22;53956;52.442;13.284;2023-08-31T05:04:55;18.40;99.90
18126;DHT22;53956;52.442;13.284;2023-08-31T05:07:23;18.40;99.90
18126;DHT22;53956;52.442;13.284;2023-08-31T05:09:50;18.40;99.90
18126;DHT22;53956;52.442;13.284;2023-08-31T05:12:16;18.40;99.90
18126;DHT22;53956;52.442;13.284;2023-08-31T05:14:43;18.40;99.90
18126;DHT22;53956;52.442;13.284;2023-08-31T05:17:10;18.30;99.90
18126;DHT22;53956;52.442;13.284;2023-08-31T05:19:37;18.50;99.90
18126;DHT22;53956;52.442;13.284;2023-08-31T05:22:03;18.50;99.90
18126;DHT22;53956;52.442;13.284;2023-08-31T05:27:24;18.40;99.90
18126;DHT22;53956;52.442;13.284;2023-08-31T05:29:56;18.40;99.90
18126;DHT22;53956;52.442;13.284;2023-08-31T05:32:22;18.40;99.90
18126;DHT22;53956;52.442;13.284;2023-08-31T05:34:49;18.50;99.90
18126;DHT22;53956;52.442;13.284;2023-08-31T05:37:16;18.40;99.90
18126;DHT22;53956;52.442;13.284;2023-08-31T05:39:47;18.50;99.90
18126;DHT22;53956;52.442;13.284;2023-08-31T05:45:45;18.40;99.90
18126;DHT22;53956;52.442;13.284;2023-08-31T05:48:12;18.50;99.90
18126;DHT22;53956;52.442;13.284;2023-08-31T05:55:58;18.50;99.90
18126;DHT22;53956;52.442;13.284;2023-08-31T05:58:29;18.50;99.90
18126;DHT22;53956;52.442;13.284;2023-08-31T06:00:57;18.50;99.90
18126;DHT22;53956;52.442;13.284;2023-08-31T06:03:31;18.50;99.90
18126;DHT22;53956;52.442;13.284;2023-08-31T06:05:58;18.60;99.90
18126;DHT22;53956;52.442;13.284;2023-08-31T06:08:25;18.60;99.90
18126;DHT22;53956;52.442;13.284;2023-08-31T06:10:52;18.60;99.90
18126;DHT22;53956;52.442;13.284;2023-08-31T06:13:19;18.70;99.90
18126;DHT22;53956;52.442;13.284;2023-08-31T06:15:58;18.70;99.90
18126;DHT22;53956;52.442;13.284;2023-08-31T06:18:25;18.80;99.90
18126;DHT22;53956;52.442;13.284;2023-08-31T06:20:52;18.70;99.90
18126;DHT22;53956;52.442;13.284;2023-08-31T06:23:18;18.70;99.90
18126;DHT22;53956;52.442;13.284;2023-08-31T06:25:45;18.70;99.90
18126;DHT22;53956;52.442;13.284;2023-08-31T06:28:12;18.80;99.90
18126;DHT22;53956;52.442;13.284;2023-08-31T06:30:38;18.70;99.90
18126;DHT22;53956;52.442;13.284;2023-08-31T06:33:07;18.80;99.90
18126;DHT22;53956;52.442;13.284;2023-08-31T06:35:33;18.70;99.90
18126;DHT22;53956;52.442;13.284;2023-08-31T06:38:00;18.80;99.90
18126;DHT22;53956;52.442;13.284;2023-08-31T06:40:27;18.70;99.90
18126;DHT22;53956;52.442;13.284;2023-08-31T06:42:53;18.60;99.90
18126;DHT22;53956;52.442;13.284;2023-08-31T06:45:22;18.70;99.90
18126;DHT22;53956;52.442;13.284;2023-08-31T06:47:49;18.60;99.90
18126;DHT22;53956;52.442;13.284;2023-08-31T06:50:21;18.60;99.90
18126;DHT22;53956;52.442;13.284;2023-08-31T06:52:47;18.60;99.90
18126;DHT22;53956;52.442;13.284;2023-08-31T06:55:14;18.60;99.90
18126;DHT22;53956;52.442;13.284;2023-08-31T06:57:41;18.60;99.90
18126;DHT22;53956;52.442;13.284;2023-08-31T07:00:09;18.60;99.90
18126;DHT22;53956;52.442;13.284;2023-08-31T07:02:39;18.60;99.90
18126;DHT22;53956;52.442;13.284;2023-08-31T07:05:05;18.60;99.90
18126;DHT22;53956;52.442;13.284;2023-08-31T07:07:33;18.70;99.90
18126;DHT22;53956;52.442;13.284;2023-08-31T07:10:00;18.70;99.90
18126;DHT22;53956;52.442;13.284;2023-08-31T07:12:28;18.60;99.90
18126;DHT22;53956;52.442;13.284;2023-08-31T07:14:54;18.60;99.90
18126;DHT22;53956;52.442;13.284;2023-08-31T15:15:24;20.10;99.90
18126;DHT22;53956;52.442;13.284;2023-08-31T20:28:55;17.50;99.90
18126;DHT22;53956;52.442;13.284;2023-08-31T20:35:32;17.50;99.90
18126;DHT22;53956;52.442;13.284;2023-08-31T21:28:55;17.30;99.90
18126;DHT22;53956;52.442;13.284;2023-08-31T23:58:58;16.60;99.90
